M I D A S
Marine Information and Data Acquisition System
Tripno 1871 of the Zeeleeuw from 2010-04-29 06:50:12 to 2010-04-29 15:24:54
Back to CruiseResearch ActivitiesStationsMapUnderway DataData graphs

EquipmentUnitsComment
TimeDGPSUTC
LatitudeDGPSDM.mWGS84
LongitudeDGPSDM.mWGS84
HeadingGyrodeg 
SOGDGPSknotsSpeed over ground
COGDGPSdegCourse over ground
DepthEcho soundermeters200 kHz
Missing or incorrect values are displayed as -999
Navigation data collected by the RV Zeeleeuw from 2010-04-29 06:37:43 to 2010-04-29 15:27:23
Time Latitude Longitude Heading SOG COG Depth
2010-04-29 06:38:49 51°13.682 2°55.891 110.4 3.3 293 -999
2010-04-29 06:39:49 51°13.696 2°55.799 96.6 3.4 281 -999
2010-04-29 06:40:49 51°13.703 2°55.739 73.3 0.8 288 -999
2010-04-29 06:41:49 51°13.703 2°55.727 32.7 1.1 237 -999
2010-04-29 06:42:49 51°13.735 2°55.705 339.6 5.6 334 -999
2010-04-29 06:43:49 51°13.856 2°55.614 338.9 9.4 338 -999
2010-04-29 06:44:49 51°14.011 2°55.508 335.9 10.4 335 -999
2010-04-29 06:45:49 51°14.167 2°55.388 338.3 10.7 336 -999
2010-04-29 06:46:48 51°14.328 2°55.251 331.2 11.5 331 9.2
2010-04-29 06:47:47 51°14.497 2°55.089 329.3 12.4 329 8.4
2010-04-29 06:48:46 51°14.679 2°54.893 331.3 13.8 325 10.2
2010-04-29 06:49:46 51°14.865 2°54.678 328.6 13.9 324 10.2
2010-04-29 06:50:46 51°15.049 2°54.477 327.7 13.2 322 7.7
2010-04-29 06:51:46 51°15.217 2°54.245 327.4 13.6 321 8.5
2010-04-29 06:52:46 51°15.398 2°54.022 329.1 13.9 321 8.9
2010-04-29 06:53:46 51°15.58 2°53.794 330.3 14 322 9.4
2010-04-29 06:54:46 51°15.766 2°53.568 330.2 14 323 9.8
2010-04-29 06:55:46 51°15.955 2°53.347 332.5 13.9 328 10.3
2010-04-29 06:56:46 51°16.161 2°53.198 345.6 13.5 339 10.3
2010-04-29 06:57:46 51°16.37 2°53.061 344.6 13.6 337 10.4
2010-04-29 06:58:46 51°16.577 2°52.922 344.5 13.4 339 10
2010-04-29 06:59:46 51°16.784 2°52.797 343.1 12.9 339 7.9
2010-04-29 07:00:46 51°16.978 2°52.663 341.2 12.9 336 8.3
2010-04-29 07:01:45 51°17.177 2°52.564 352 12.6 347 8
2010-04-29 07:02:46 51°17.385 2°52.467 347.5 13 343 8.6
2010-04-29 07:03:45 51°17.592 2°52.402 356.1 12.9 350 8.6
2010-04-29 07:04:46 51°17.805 2°52.338 355.5 12.8 349 8.9
2010-04-29 07:05:45 51°18.012 2°52.272 354.3 12.9 347 9
2010-04-29 07:06:46 51°18.229 2°52.199 354.3 13.2 348 10
2010-04-29 07:07:45 51°18.44 2°52.13 354.8 13.1 348 10
2010-04-29 07:08:46 51°18.658 2°52.055 354 13.3 347 11
2010-04-29 07:09:45 51°18.87 2°51.977 354.3 13.3 347 12.1
2010-04-29 07:10:46 51°19.088 2°51.896 354.4 13.2 346 13.4
2010-04-29 07:11:46 51°19.302 2°51.811 354.4 13.2 346 14.1
2010-04-29 07:12:45 51°19.511 2°51.727 353.9 13.2 345 14.4
2010-04-29 07:13:46 51°19.726 2°51.639 355 13.1 347 13.8
2010-04-29 07:14:46 51°19.939 2°51.588 1 12.9 352 13.5
2010-04-29 07:15:46 51°20.152 2°51.543 0.8 12.9 352 11.6
2010-04-29 07:16:45 51°20.364 2°51.496 1.1 13.1 353 12.8
2010-04-29 07:17:46 51°20.585 2°51.448 0.1 13.2 352 13.4
2010-04-29 07:18:46 51°20.804 2°51.397 -999 13.3 351 15.9
2010-04-29 07:19:46 51°21.023 2°51.343 0.6 13.4 351 18.2
2010-04-29 07:20:46 51°21.243 2°51.29 0.5 13.4 351 20.9
2010-04-29 07:21:45 51°21.461 2°51.232 358 13.6 349 22.6
2010-04-29 07:22:46 51°21.666 2°51.089 323.1 13.5 306 22.9
2010-04-29 07:23:46 51°21.753 2°50.732 297.4 14.9 293 22.6
2010-04-29 07:24:46 51°21.918 2°50.528 359.8 13 352 21.4
2010-04-29 07:25:45 51°22.127 2°50.47 13.9 12 14 21.8
2010-04-29 07:26:46 51°22.239 2°50.721 59.7 12.1 59 21.9
2010-04-29 07:27:46 51°22.361 2°50.977 45.1 12 35 21.9
2010-04-29 07:28:45 51°22.562 2°50.986 0.5 13.1 353 21
2010-04-29 07:29:46 51°22.781 2°50.932 0.8 12.8 353 20.7
2010-04-29 07:30:45 51°22.982 2°50.968 13.9 12.4 8 16.2
2010-04-29 07:31:46 51°23.188 2°51.019 14.2 12.1 9 13.4
2010-04-29 07:32:45 51°23.385 2°51.071 15.8 12.3 10 14.2
2010-04-29 07:33:46 51°23.592 2°51.117 13.1 12.3 7 15.9
2010-04-29 07:34:45 51°23.793 2°51.156 13.5 12.5 6 18.1
2010-04-29 07:35:46 51°24.002 2°51.199 13.8 12.5 7 19.1
2010-04-29 07:36:45 51°24.205 2°51.235 13.9 12.4 6 19.9
2010-04-29 07:37:46 51°24.415 2°51.27 14.5 12.5 7 20.9
2010-04-29 07:38:46 51°24.621 2°51.302 13.9 12.4 7 21.1
2010-04-29 07:39:46 51°24.825 2°51.336 14.4 12.3 7 21.6
2010-04-29 07:40:46 51°25.029 2°51.37 14.3 12.3 6 21.8
2010-04-29 07:41:46 51°25.233 2°51.401 14.2 12.4 4 21.8
2010-04-29 07:42:46 51°25.437 2°51.437 14.5 12.4 7 22.3
2010-04-29 07:43:45 51°25.64 2°51.47 14.2 12.4 6 22.5
2010-04-29 07:44:46 51°25.851 2°51.505 14.2 12.6 6 23.2
2010-04-29 07:45:45 51°26.056 2°51.547 15.1 12.7 8 29
2010-04-29 07:46:45 51°26.268 2°51.591 13.8 12.8 6 24.7
2010-04-29 07:47:46 51°26.482 2°51.631 13.9 12.7 6 24.4
2010-04-29 07:48:45 51°26.688 2°51.666 14.4 12.7 6 24.3
2010-04-29 07:49:46 51°26.902 2°51.703 14.5 12.7 7 21.5
2010-04-29 07:50:45 51°27.104 2°51.741 14.2 12.2 6 18.5
2010-04-29 07:51:46 51°27.309 2°51.783 17 12.1 11 21.1
2010-04-29 07:52:45 51°27.495 2°51.882 27.7 11.9 23 19.2
2010-04-29 07:53:46 51°27.681 2°52.001 27 11.9 22 20.3
2010-04-29 07:54:45 51°27.863 2°52.115 26.7 11.9 21 21
2010-04-29 07:55:46 51°28.053 2°52.233 26.6 12 20 21
2010-04-29 07:56:46 51°28.241 2°52.349 26.5 12.2 20 22.6
2010-04-29 07:57:45 51°28.427 2°52.461 26.1 12.2 22 24.5
2010-04-29 07:58:46 51°28.622 2°52.578 26.8 12.3 21 25.9
2010-04-29 07:59:45 51°28.81 2°52.692 26.2 12.3 20 26.3
2010-04-29 08:00:46 51°29.006 2°52.804 26.5 12.2 21 26.3
2010-04-29 08:01:46 51°29.198 2°52.917 26.2 12.2 20 26.6
2010-04-29 08:02:46 51°29.39 2°53.03 26.3 12.5 19 28.7
2010-04-29 08:03:45 51°29.579 2°53.142 26.3 12.3 20 30.6
2010-04-29 08:04:46 51°29.774 2°53.255 28.6 12.1 23 32
2010-04-29 08:05:46 51°29.961 2°53.381 29.8 12.2 23 31
2010-04-29 08:06:45 51°30.145 2°53.505 29.6 12.1 23 30.2
2010-04-29 08:07:46 51°30.336 2°53.63 29.2 12.4 22 32.5
2010-04-29 08:08:45 51°30.523 2°53.755 30.3 12.3 25 29
2010-04-29 08:09:46 51°30.71 2°53.892 29.2 12.2 25 23.2
2010-04-29 08:10:45 51°30.886 2°54.028 29.8 11.6 26 17.8
2010-04-29 08:11:46 51°31.065 2°54.166 29.4 11.8 26 18.5
2010-04-29 08:12:45 51°31.237 2°54.306 32.3 11.8 29 19
2010-04-29 08:13:46 51°31.408 2°54.47 33.5 11.8 32 19.3
2010-04-29 08:14:46 51°31.577 2°54.63 33.3 11.8 30 18.8
2010-04-29 08:15:45 51°31.742 2°54.789 34.7 11.7 35 20
2010-04-29 08:16:46 51°31.902 2°54.979 38.4 11.8 37 19.5
2010-04-29 08:17:45 51°32.056 2°55.167 39.1 11.8 38 20.4
2010-04-29 08:18:46 51°32.216 2°55.362 38.7 11.9 38 21
2010-04-29 08:19:46 51°32.364 2°55.494 13.8 7.6 4 20.7
2010-04-29 08:20:46 51°32.439 2°55.446 338.5 3.9 315 22.8
2010-04-29 08:21:45 51°32.463 2°55.367 317.5 3.1 284 19.9
2010-04-29 08:22:46 51°32.466 2°55.287 306.2 2.8 268 22.5
2010-04-29 08:23:46 51°32.457 2°55.213 295.3 2.8 253 21.7
2010-04-29 08:24:45 51°32.439 2°55.141 287.7 2.9 248 22.5
2010-04-29 08:25:46 51°32.42 2°55.067 287 2.9 249 23.2
2010-04-29 08:26:45 51°32.413 2°54.99 317.8 3.2 287 21.6
2010-04-29 08:27:46 51°32.457 2°55 52.1 4.9 65 23
2010-04-29 08:28:45 51°32.429 2°55.199 99.7 9.9 109 21.3
2010-04-29 08:29:46 51°32.368 2°55.508 95 12.8 105 21.8
2010-04-29 08:30:46 51°32.301 2°55.84 99.5 12.9 103 22.2
2010-04-29 08:31:45 51°32.255 2°56.105 98.8 8.5 109 19.9
2010-04-29 08:32:46 51°32.224 2°56.297 93 7.1 106 17.6
2010-04-29 08:33:46 51°32.204 2°56.469 88.6 6.4 102 19.6
2010-04-29 08:34:46 51°32.19 2°56.64 81.8 6.4 93 19.8
2010-04-29 08:35:45 51°32.171 2°56.724 120.7 1.7 190 19.2
2010-04-29 08:36:46 51°32.147 2°56.709 147.7 1.5 198 20.2
2010-04-29 08:37:45 51°32.125 2°56.694 155.8 1.5 204 4.6
2010-04-29 08:38:46 51°32.099 2°56.68 155.4 1.8 194 18.3
2010-04-29 08:39:45 51°32.064 2°56.676 141.5 2.4 176 19.3
2010-04-29 08:40:46 51°32.023 2°56.695 114.2 2.5 153 18.2
2010-04-29 08:41:46 51°31.989 2°56.722 94 2 158 15.1
2010-04-29 08:42:45 51°31.963 2°56.74 89.1 1.6 158 17.4
2010-04-29 08:43:46 51°31.94 2°56.753 86.8 1.4 163 17.8
2010-04-29 08:44:46 51°31.917 2°56.76 85.4 1.3 174 15.9
2010-04-29 08:45:46 51°31.896 2°56.762 86.5 1.3 179 17.1
2010-04-29 08:46:45 51°31.873 2°56.762 87.6 1.3 182 17.9
2010-04-29 08:47:46 51°31.851 2°56.76 94.1 1.3 185 17.9
2010-04-29 08:48:46 51°31.826 2°56.755 101.6 1.6 190 15.3
2010-04-29 08:49:46 51°31.801 2°56.748 109.7 1.5 192 17.6
2010-04-29 08:50:45 51°31.776 2°56.741 115.3 1.5 190 17.4
2010-04-29 08:51:45 51°31.752 2°56.731 116.1 1.5 195 17.4
2010-04-29 08:52:45 51°31.721 2°56.733 130 3.3 163 15.9
2010-04-29 08:53:46 51°31.64 2°56.719 207.6 5.7 209 17.7
2010-04-29 08:54:46 51°31.602 2°56.598 293 4.7 274 14.3
2010-04-29 08:55:45 51°31.646 2°56.522 345.8 4.5 330 15.7
2010-04-29 08:56:45 51°31.717 2°56.441 328.2 6.3 313 16.2
2010-04-29 08:57:45 51°31.803 2°56.301 331.5 7.8 321 19.3
2010-04-29 08:58:46 51°31.908 2°56.164 330.7 8.2 320 17.6
2010-04-29 08:59:46 51°32.011 2°56.025 332.6 8 322 19.1
2010-04-29 09:00:45 51°32.128 2°55.878 332.4 9.8 323 21.1
2010-04-29 09:01:46 51°32.263 2°55.713 331.9 10.1 324 21.9
2010-04-29 09:02:46 51°32.36 2°55.676 30.6 3.7 36 19.2
2010-04-29 09:03:45 51°32.38 2°55.754 48.2 3.5 56 22.7
2010-04-29 09:04:45 51°32.448 2°55.837 38.6 6.9 43 22
2010-04-29 09:05:46 51°32.488 2°56.022 84 5.8 100 23.7
2010-04-29 09:06:45 51°32.468 2°56.115 91.7 3.1 122 25.1
2010-04-29 09:07:46 51°32.44 2°56.168 94.9 2.2 137 25.4
2010-04-29 09:08:45 51°32.416 2°56.196 88.9 1.5 151 24.5
2010-04-29 09:09:46 51°32.392 2°56.211 94.2 1.5 166 24.3
2010-04-29 09:10:46 51°32.367 2°56.217 93.9 1.5 178 22.8
2010-04-29 09:11:46 51°32.341 2°56.218 97.3 1.5 183 21.3
2010-04-29 09:12:45 51°32.315 2°56.215 101.1 1.7 188 21.3
2010-04-29 09:13:45 51°32.286 2°56.221 104.6 2.3 153 20.5
2010-04-29 09:14:46 51°32.242 2°56.27 117.6 3.8 145 18.6
2010-04-29 09:15:45 51°32.18 2°56.312 145.7 3.9 167 20.6
2010-04-29 09:16:46 51°32.115 2°56.316 172.1 3.8 187 18.2
2010-04-29 09:17:45 51°32.047 2°56.277 215.7 5.6 214 20.2
2010-04-29 09:18:46 51°32.022 2°56.139 307.6 5.2 297 20.6
2010-04-29 09:19:45 51°32.094 2°56.037 329.2 7.2 316 20.7
2010-04-29 09:20:46 51°32.179 2°55.969 9.4 4.5 4 22.4
2010-04-29 09:21:46 51°32.268 2°55.98 8.9 7.2 4 23
2010-04-29 09:22:45 51°32.388 2°55.975 0.1 5.6 354 21.9
2010-04-29 09:23:46 51°32.443 2°55.987 26.6 1.5 21 23.1
2010-04-29 09:24:45 51°32.451 2°56 38.6 0.6 83 23
2010-04-29 09:25:46 51°32.45 2°56.013 42.6 0.5 119 22.6
2010-04-29 09:26:45 51°32.444 2°56.019 40.9 0.3 168 23
2010-04-29 09:27:46 51°32.435 2°56.021 38.3 0.6 179 23.2
2010-04-29 09:28:45 51°32.425 2°56.019 36.2 0.7 202 22.7
2010-04-29 09:29:46 51°32.41 2°56.013 36.9 1.1 187 22.4
2010-04-29 09:30:46 51°32.394 2°56.005 42.2 1.1 196 21.4
2010-04-29 09:31:45 51°32.376 2°55.997 44.7 1.2 203 21.5
2010-04-29 09:32:46 51°32.354 2°55.986 45.8 1.4 197 19.8
2010-04-29 09:33:45 51°32.349 2°55.984 16.1 0.6 332 18.8
2010-04-29 09:34:46 51°32.361 2°55.944 323.9 2.7 281 18.2
2010-04-29 09:35:46 51°32.354 2°55.857 273.4 3.9 248 23.3
2010-04-29 09:36:45 51°32.311 2°55.77 224.2 4.4 218 19.2
2010-04-29 09:37:45 51°32.242 2°55.734 172.5 4.3 182 22.4
2010-04-29 09:38:46 51°32.179 2°55.765 124.6 3.9 146 22.3
2010-04-29 09:39:45 51°32.179 2°55.839 32.2 3.2 25 22.3
2010-04-29 09:40:46 51°32.275 2°55.773 342 9.2 333 21.2
2010-04-29 09:41:46 51°32.438 2°55.666 346.6 10.8 339 22.5
2010-04-29 09:42:45 51°32.605 2°55.562 345.6 11 337 22.8
2010-04-29 09:43:46 51°32.713 2°55.437 322.6 5.9 306 20.9
2010-04-29 09:44:45 51°32.747 2°55.344 337.7 2.4 300 23.4
2010-04-29 09:45:46 51°32.749 2°55.312 15.3 0.8 246 24.5
2010-04-29 09:46:45 51°32.745 2°55.301 39.4 0.5 231 24.7
2010-04-29 09:47:45 51°32.734 2°55.293 46.9 0.9 200 24.4
2010-04-29 09:48:45 51°32.72 2°55.282 48.3 1.1 208 22.5
2010-04-29 09:49:45 51°32.704 2°55.27 48.1 1.1 204 24.1
2010-04-29 09:50:46 51°32.696 2°55.263 28.4 0.5 347 24.8
2010-04-29 09:51:46 51°32.74 2°55.216 339.8 6.6 324 24.6
2010-04-29 09:52:46 51°32.863 2°55.048 322.4 11.2 311 24.4
2010-04-29 09:53:46 51°32.997 2°54.844 337 11 327 23.2
2010-04-29 09:54:46 51°33.154 2°54.705 346.8 9.6 338 26.5
2010-04-29 09:55:46 51°33.251 2°54.684 15.4 4 3 26.8
2010-04-29 09:56:46 51°33.285 2°54.683 10.7 0.9 311 26.6
2010-04-29 09:57:45 51°33.287 2°54.666 24 0.7 246 26.9
2010-04-29 09:58:45 51°33.277 2°54.65 42.1 0.8 222 26.8
2010-04-29 09:59:46 51°33.266 2°54.639 48.9 0.7 198 27.1
2010-04-29 10:00:45 51°33.266 2°54.642 42.9 0.3 35 27.1
2010-04-29 10:01:46 51°33.267 2°54.645 40.1 0.2 145 26.7
2010-04-29 10:02:45 51°33.266 2°54.644 35.6 0.3 278 27.1
2010-04-29 10:03:46 51°33.267 2°54.639 27.7 0.1 323 27.1
2010-04-29 10:04:45 51°33.27 2°54.636 26 0.3 15 26.8
2010-04-29 10:05:45 51°33.275 2°54.632 23 0.4 321 26.9
2010-04-29 10:06:46 51°33.278 2°54.63 30 0.1 36 27.2
2010-04-29 10:07:45 51°33.28 2°54.634 37.7 0.3 127 27.3
2010-04-29 10:08:46 51°33.279 2°54.634 39.4 0.1 176 27.1
2010-04-29 10:09:45 51°33.276 2°54.633 39.3 0.2 196 27
2010-04-29 10:10:46 51°33.273 2°54.633 40.3 0.1 160 26.7
2010-04-29 10:11:45 51°33.272 2°54.635 39.3 -999 18 26.7
2010-04-29 10:12:45 51°33.273 2°54.637 35.3 0.1 341 26.6
2010-04-29 10:13:45 51°33.273 2°54.636 30.8 -999 43 27
2010-04-29 10:14:45 51°33.274 2°54.633 29.9 0.1 268 27
2010-04-29 10:15:46 51°33.275 2°54.633 31.4 -999 20 27.1
2010-04-29 10:16:45 51°33.276 2°54.634 32.3 0.2 80 27.3
2010-04-29 10:17:46 51°33.276 2°54.634 30.9 0.1 338 27.3
2010-04-29 10:18:45 51°33.276 2°54.633 31 -999 314 27.2
2010-04-29 10:19:46 51°33.276 2°54.633 33.2 0.1 325 27.2
2010-04-29 10:20:45 51°33.276 2°54.633 32.3 0.1 128 27.3
2010-04-29 10:21:45 51°33.276 2°54.634 33 0.1 87 27.2
2010-04-29 10:22:45 51°33.276 2°54.634 33.5 0.1 117 27.3
2010-04-29 10:23:45 51°33.275 2°54.635 33 0.1 110 27.1
2010-04-29 10:24:44 51°33.274 2°54.635 31.5 0.1 232 27.1
2010-04-29 10:25:45 51°33.273 2°54.636 30 0.1 130 27.1
2010-04-29 10:26:46 51°33.274 2°54.636 28.4 -999 209 27.1
2010-04-29 10:27:45 51°33.274 2°54.637 30.8 0.1 346 27.1
2010-04-29 10:28:45 51°33.273 2°54.638 29.2 0.1 138 27
2010-04-29 10:29:45 51°33.273 2°54.637 28.5 0.1 127 27.1
2010-04-29 10:30:45 51°33.273 2°54.638 29.3 0.1 -999 27.1
2010-04-29 10:31:46 51°33.274 2°54.638 29.1 -999 62 27.2
2010-04-29 10:32:45 51°33.274 2°54.639 28.4 -999 279 27.3
2010-04-29 10:33:44 51°33.274 2°54.639 27.7 0.1 235 27.1
2010-04-29 10:34:45 51°33.273 2°54.639 28.4 0.1 187 27.2
2010-04-29 10:35:46 51°33.272 2°54.639 25.8 0.1 140 27.1
2010-04-29 10:36:45 51°33.273 2°54.639 26.2 0.2 321 27.3
2010-04-29 10:37:45 51°33.273 2°54.64 25.6 0.1 299 27.2
2010-04-29 10:38:45 51°33.273 2°54.641 25.4 0.1 125 27.4
2010-04-29 10:39:45 51°33.273 2°54.641 25.2 0.1 302 27.4
2010-04-29 10:40:46 51°33.273 2°54.64 22.6 -999 268 27.3
2010-04-29 10:41:45 51°33.273 2°54.64 23.8 -999 290 27.3
2010-04-29 10:42:46 51°33.273 2°54.641 24 0.1 105 27.5
2010-04-29 10:43:45 51°33.272 2°54.642 22.3 0.1 252 27.4
2010-04-29 10:44:45 51°33.272 2°54.642 21.1 -999 235 27.4
2010-04-29 10:45:45 51°33.271 2°54.643 20.6 -999 146 27.3
2010-04-29 10:46:46 51°33.271 2°54.643 16.8 0.1 175 27.4
2010-04-29 10:47:45 51°33.271 2°54.643 16.1 0.1 91 27.5
2010-04-29 10:48:46 51°33.272 2°54.643 18 0.1 54 27.5
2010-04-29 10:49:46 51°33.272 2°54.644 18.3 0.1 29 27.5
2010-04-29 10:50:46 51°33.272 2°54.645 16.9 0.1 130 27.4
2010-04-29 10:51:45 51°33.271 2°54.646 15.9 0.1 204 27.5
2010-04-29 10:52:45 51°33.27 2°54.646 15.2 0.1 203 27.4
2010-04-29 10:53:46 51°33.269 2°54.648 15.5 0.1 95 27.4
2010-04-29 10:54:46 51°33.27 2°54.648 13.5 0.1 324 27.4
2010-04-29 10:55:46 51°33.27 2°54.648 10.9 0.1 12 27.6
2010-04-29 10:56:45 51°33.27 2°54.649 10.2 0.1 17 27.8
2010-04-29 10:57:45 51°33.271 2°54.649 9.9 -999 225 27.8
2010-04-29 10:58:45 51°33.271 2°54.648 8.1 -999 159 27.7
2010-04-29 10:59:46 51°33.271 2°54.648 7.6 -999 243 27.6
2010-04-29 11:00:45 51°33.27 2°54.648 8.2 0.1 98 27.7
2010-04-29 11:01:46 51°33.271 2°54.648 8.8 0.1 73 27.8
2010-04-29 11:02:46 51°33.271 2°54.65 9.4 0.1 79 28
2010-04-29 11:03:46 51°33.271 2°54.652 9.5 0.1 86 28
2010-04-29 11:04:46 51°33.271 2°54.654 7.5 0.1 111 28.2
2010-04-29 11:05:45 51°33.271 2°54.655 5.2 0.1 236 28.1
2010-04-29 11:06:46 51°33.27 2°54.655 1.7 0.1 108 28.2
2010-04-29 11:07:45 51°33.27 2°54.656 358.6 -999 16 28.2
2010-04-29 11:08:45 51°33.27 2°54.655 357.2 -999 127 28.2
2010-04-29 11:09:46 51°33.27 2°54.656 356.9 0.1 47 28
2010-04-29 11:10:45 51°33.271 2°54.659 356.9 0.1 306 28
2010-04-29 11:11:46 51°33.27 2°54.66 355.7 0.2 92 27.8
2010-04-29 11:12:46 51°33.27 2°54.663 353.3 0.1 87 28
2010-04-29 11:13:46 51°33.27 2°54.664 350.7 0.1 76 28.1
2010-04-29 11:14:45 51°33.27 2°54.666 347.5 0.1 70 28.2
2010-04-29 11:15:46 51°33.27 2°54.668 344.5 -999 137 28.5
2010-04-29 11:16:45 51°33.27 2°54.669 341.7 0.1 85 28.5
2010-04-29 11:17:46 51°33.271 2°54.67 339.3 -999 27 28.5
2010-04-29 11:18:46 51°33.271 2°54.671 337 0.1 56 28.2
2010-04-29 11:19:45 51°33.272 2°54.673 334.9 0.1 67 28.2
2010-04-29 11:20:45 51°33.273 2°54.674 332.9 0.1 45 28.2
2010-04-29 11:21:45 51°33.274 2°54.675 330.6 0.1 59 28.6
2010-04-29 11:22:46 51°33.275 2°54.677 327.5 -999 45 28.7
2010-04-29 11:23:46 51°33.275 2°54.679 323.8 0.1 103 28.8
2010-04-29 11:24:45 51°33.275 2°54.682 319.7 0.1 88 28.4
2010-04-29 11:25:45 51°33.275 2°54.684 314.7 0.1 66 28.3
2010-04-29 11:26:45 51°33.275 2°54.686 309.8 0.1 88 28.3
2010-04-29 11:27:45 51°33.274 2°54.687 305.6 0.1 190 28.3
2010-04-29 11:28:45 51°33.274 2°54.688 303.1 -999 10 28.3
2010-04-29 11:29:46 51°33.275 2°54.688 302.2 0.1 35 28.2
2010-04-29 11:30:45 51°33.275 2°54.688 301.2 0.1 52 28.1
2010-04-29 11:31:45 51°33.276 2°54.689 300.3 0.1 225 28.3
2010-04-29 11:32:45 51°33.277 2°54.691 299.1 0.1 59 28.3
2010-04-29 11:33:45 51°33.277 2°54.692 296.7 0.1 189 28.5
2010-04-29 11:34:45 51°33.278 2°54.694 293.3 -999 155 28.6
2010-04-29 11:35:45 51°33.278 2°54.696 290.4 0.1 176 28.7
2010-04-29 11:36:45 51°33.279 2°54.697 288 -999 54 28.6
2010-04-29 11:37:45 51°33.279 2°54.698 286.2 0.3 23 28.6
2010-04-29 11:38:45 51°33.28 2°54.698 284.3 0.1 177 28.7
2010-04-29 11:39:46 51°33.281 2°54.699 281.9 0.1 355 28.6
2010-04-29 11:40:46 51°33.281 2°54.699 280.1 0.1 191 28.2
2010-04-29 11:41:46 51°33.281 2°54.7 278 0.1 7 28.1
2010-04-29 11:42:46 51°33.282 2°54.7 275.9 0.2 180 28.1
2010-04-29 11:43:45 51°33.282 2°54.7 273.7 0.1 21 28
2010-04-29 11:44:46 51°33.282 2°54.701 271.8 -999 80 28
2010-04-29 11:45:45 51°33.282 2°54.701 270.7 -999 325 28.1
2010-04-29 11:46:45 51°33.282 2°54.702 271.2 0.3 14 28
2010-04-29 11:47:45 51°33.283 2°54.702 274 0.1 308 28.2
2010-04-29 11:48:46 51°33.287 2°54.699 279 0.3 1 27.9
2010-04-29 11:49:46 51°33.291 2°54.702 282.4 0.3 30 27.9
2010-04-29 11:50:45 51°33.294 2°54.707 284.9 0.4 31 27.4
2010-04-29 11:51:45 51°33.299 2°54.715 292.3 0.4 61 29.3
2010-04-29 11:52:45 51°33.306 2°54.721 295.5 0.5 343 29.5
2010-04-29 11:53:46 51°33.319 2°54.71 294.6 1.1 332 28.8
2010-04-29 11:54:45 51°33.331 2°54.7 292 0.6 341 29.1
2010-04-29 11:55:45 51°33.34 2°54.698 289 0.4 -999 28.7
2010-04-29 11:56:46 51°33.351 2°54.697 294.7 1 338 29
2010-04-29 11:57:46 51°33.391 2°54.685 348 3.7 5 30.1
2010-04-29 11:58:45 51°33.448 2°54.744 46.4 4.6 52 29
2010-04-29 11:59:46 51°33.468 2°54.862 98.5 4.4 94 28.1
2010-04-29 12:00:45 51°33.443 2°54.951 152.2 3.4 134 28.1
2010-04-29 12:01:46 51°33.398 2°54.978 197.5 2.8 179 30.1
2010-04-29 12:02:46 51°33.358 2°54.963 217.7 2.3 198 29.1
2010-04-29 12:03:45 51°33.328 2°54.944 222.7 1.8 206 28.5
2010-04-29 12:04:46 51°33.307 2°54.931 228.3 1 205 29.5
2010-04-29 12:05:45 51°33.296 2°54.925 233.3 0.5 188 29.2
2010-04-29 12:06:46 51°33.288 2°54.926 231.9 0.4 154 28.8
2010-04-29 12:07:46 51°33.283 2°54.935 226.5 0.6 125 29.3
2010-04-29 12:08:45 51°33.279 2°54.948 221.3 0.6 107 29.3
2010-04-29 12:09:45 51°33.276 2°54.967 217.7 0.9 102 29.7
2010-04-29 12:10:45 51°33.275 2°54.989 215.8 0.8 89 29.6
2010-04-29 12:11:46 51°33.274 2°55.011 220.8 0.6 94 28.6
2010-04-29 12:12:45 51°33.271 2°55.02 241.1 0.2 206 28.3
2010-04-29 12:13:45 51°33.269 2°55.008 247.8 0.8 256 28.9
2010-04-29 12:14:46 51°33.259 2°54.982 239.2 1.3 240 29.7
2010-04-29 12:15:46 51°33.244 2°54.947 239 1.7 240 27.4
2010-04-29 12:16:45 51°33.229 2°54.905 242.6 1.9 243 28.6
2010-04-29 12:17:45 51°33.216 2°54.859 248 1.9 251 28.9
2010-04-29 12:18:45 51°33.221 2°54.81 282.1 2 307 29.3
2010-04-29 12:19:45 51°33.255 2°54.784 324.1 2.6 353 29.4
2010-04-29 12:20:45 51°33.303 2°54.797 4.4 3.2 23 28.3
2010-04-29 12:21:45 51°33.348 2°54.852 45.1 3.6 49 29.2
2010-04-29 12:22:45 51°33.387 2°54.933 55.9 3.8 53 29.7
2010-04-29 12:23:46 51°33.427 2°55.001 27.9 3.3 39 29.1
2010-04-29 12:24:46 51°33.473 2°55.049 10.2 3.2 28 29.1
2010-04-29 12:25:45 51°33.519 2°55.08 355 3.1 20 30.1
2010-04-29 12:26:45 51°33.567 2°55.099 342.1 2.8 10 30.1
2010-04-29 12:27:46 51°33.612 2°55.104 328.9 2.4 355 31
2010-04-29 12:28:46 51°33.656 2°55.089 304.4 3.3 322 29.5
2010-04-29 12:29:45 51°33.65 2°54.949 248.1 8.2 246 31.4
2010-04-29 12:30:45 51°33.553 2°54.724 229.3 11.4 226 30.7
2010-04-29 12:31:45 51°33.414 2°54.49 227 12.1 227 29.5
2010-04-29 12:32:46 51°33.271 2°54.247 227.4 12.2 228 29
2010-04-29 12:33:45 51°33.135 2°54.01 225.8 12.3 226 29.1
2010-04-29 12:34:45 51°32.983 2°53.792 220.1 12.2 217 29.3
2010-04-29 12:35:46 51°32.811 2°53.605 215 12.2 214 29.3
2010-04-29 12:36:45 51°32.63 2°53.464 204.3 12.3 202 29
2010-04-29 12:37:45 51°32.435 2°53.355 202 12.4 199 24.2
2010-04-29 12:38:45 51°32.242 2°53.242 203.3 12.3 200 26.4
2010-04-29 12:39:46 51°32.046 2°53.128 203.6 12.4 200 24.4
2010-04-29 12:40:45 51°31.855 2°53.019 204.1 12.2 199 23.7
2010-04-29 12:41:45 51°31.663 2°52.908 204 12.1 199 23.5
2010-04-29 12:42:45 51°31.471 2°52.794 204.5 12.3 200 22.5
2010-04-29 12:43:45 51°31.307 2°52.705 204 8.5 197 24.8
2010-04-29 12:44:46 51°31.212 2°52.659 209.8 3.9 196 22.8
2010-04-29 12:45:45 51°31.177 2°52.636 223.9 1.5 204 24.4
2010-04-29 12:46:45 51°31.166 2°52.625 235.9 0.4 234 23.9
2010-04-29 12:47:46 51°31.167 2°52.622 245.6 0.3 7 23.8
2010-04-29 12:48:45 51°31.173 2°52.627 248.3 0.5 33 24.3
2010-04-29 12:49:45 51°31.179 2°52.629 251.6 0.6 314 24.4
2010-04-29 12:50:45 51°31.182 2°52.607 251 1.2 278 24.5
2010-04-29 12:51:46 51°31.185 2°52.568 255.6 1.6 276 24
2010-04-29 12:52:45 51°31.188 2°52.525 249.6 1.7 269 24.6
2010-04-29 12:53:45 51°31.178 2°52.487 231.8 1.5 228 24.8
2010-04-29 12:54:45 51°31.157 2°52.467 212.5 1.7 195 23.1
2010-04-29 12:55:45 51°31.115 2°52.501 154 4.9 126 23.1
2010-04-29 12:56:46 51°31.139 2°52.699 59.8 10.7 56 23.3
2010-04-29 12:57:45 51°31.329 2°52.804 347.3 13.5 348 23.1
2010-04-29 12:58:45 51°31.566 2°52.743 350.6 14.9 353 25.2
2010-04-29 12:59:45 51°31.813 2°52.714 351.4 14.8 355 27.3
2010-04-29 13:00:45 51°32.059 2°52.674 349.5 14.9 354 27.2
2010-04-29 13:01:44 51°32.233 2°52.686 10.7 7.7 20 26.5
2010-04-29 13:02:45 51°32.311 2°52.769 45.7 3.9 46 30.1
2010-04-29 13:03:45 51°32.338 2°52.817 78.3 1.8 46 28.8
2010-04-29 13:04:45 51°32.355 2°52.878 114.8 3.1 85 30.1
2010-04-29 13:05:45 51°32.346 2°52.947 166.1 2.1 112 29.2
2010-04-29 13:06:45 51°32.338 2°52.988 184.8 1.4 107 28.6
2010-04-29 13:07:45 51°32.332 2°53.021 189.5 1.2 103 28
2010-04-29 13:08:45 51°32.328 2°53.053 190.8 1.3 97 26.9
2010-04-29 13:09:45 51°32.328 2°53.087 191.7 1.3 84 25.1
2010-04-29 13:10:45 51°32.331 2°53.121 191 1.2 78 27.8
2010-04-29 13:11:45 51°32.335 2°53.155 190.6 1.3 86 28.6
2010-04-29 13:12:45 51°32.297 2°53.215 159.2 6.1 144 27.6
2010-04-29 13:13:45 51°32.179 2°53.315 168.9 9.2 158 27.6
2010-04-29 13:14:45 51°32.026 2°53.4 169.7 9.9 159 26.1
2010-04-29 13:15:45 51°31.885 2°53.483 169.2 8 156 22.3
2010-04-29 13:16:46 51°31.775 2°53.563 170.9 6.2 155 23.9
2010-04-29 13:17:45 51°31.712 2°53.602 186.4 2.9 161 24.9
2010-04-29 13:18:45 51°31.685 2°53.618 204.8 1.1 154 24.3
2010-04-29 13:19:45 51°31.674 2°53.634 205.1 0.9 121 24.6
2010-04-29 13:20:45 51°31.668 2°53.657 195.7 1 111 24.3
2010-04-29 13:21:46 51°31.661 2°53.696 169 1.8 106 24.7
2010-04-29 13:22:45 51°31.65 2°53.752 149.4 2.6 105 24.7
2010-04-29 13:23:45 51°31.644 2°53.819 138.3 2.6 94 24.8
2010-04-29 13:24:45 51°31.645 2°53.886 132.2 2.6 84 23.7
2010-04-29 13:25:46 51°31.651 2°53.953 133.7 2.3 79 21.7
2010-04-29 13:26:45 51°31.658 2°54.01 140.8 2.2 76 21.5
2010-04-29 13:27:45 51°31.668 2°54.064 140.7 2 73 24
2010-04-29 13:28:44 51°31.677 2°54.112 140.5 1.9 71 24.2
2010-04-29 13:29:45 51°31.688 2°54.16 145.2 2 67 23.3
2010-04-29 13:30:46 51°31.701 2°54.205 145.3 1.9 63 24
2010-04-29 13:31:45 51°31.716 2°54.25 142.8 1.9 61 21.5
2010-04-29 13:32:46 51°31.671 2°54.285 191.9 6.8 179 21.7
2010-04-29 13:33:45 51°31.524 2°54.319 170.9 10.2 162 21
2010-04-29 13:34:45 51°31.351 2°54.427 166.7 11.8 160 22.5
2010-04-29 13:35:45 51°31.167 2°54.543 167 11.5 157 22
2010-04-29 13:36:46 51°31.052 2°54.614 190.5 3.6 170 18.6
2010-04-29 13:37:45 51°31.034 2°54.614 227.2 0.1 127 20.9
2010-04-29 13:38:46 51°31.037 2°54.629 206.4 1 81 20.6
2010-04-29 13:39:44 51°31.038 2°54.671 169.2 2.1 88 18.4
2010-04-29 13:40:45 51°31.041 2°54.735 150.1 2.5 83 21.8
2010-04-29 13:41:45 51°31.05 2°54.802 143.2 2.6 74 21.3
2010-04-29 13:42:45 51°31.065 2°54.867 146.2 2.5 68 20.4
2010-04-29 13:43:46 51°31.082 2°54.928 148.9 2.5 64 21.1
2010-04-29 13:44:45 51°31.101 2°54.984 150.3 2.4 61 20.9
2010-04-29 13:45:46 51°31.12 2°55.041 152.9 2.4 65 20.8
2010-04-29 13:46:45 51°31.13 2°55.105 151.1 2.7 92 20.8
2010-04-29 13:47:45 51°31.115 2°55.184 157.3 3.3 115 20.8
2010-04-29 13:48:45 51°31.088 2°55.26 164.6 3.2 122 19.6
2010-04-29 13:49:45 51°31.058 2°55.326 169.9 3 128 20.8
2010-04-29 13:50:45 51°31.029 2°55.381 186.2 2 139 22
2010-04-29 13:51:45 51°31.015 2°55.392 224.1 0.4 207 19.5
2010-04-29 13:52:44 51°31.004 2°55.388 216.5 0.9 183 22.2
2010-04-29 13:53:44 51°30.988 2°55.389 211.6 1 183 23.7
2010-04-29 13:54:44 51°30.969 2°55.391 213.8 1.2 178 22
2010-04-29 13:55:44 51°30.947 2°55.395 194.4 2.2 143 27.8
2010-04-29 13:56:44 51°30.913 2°55.461 166 5.1 142 33.3
2010-04-29 13:57:44 51°30.797 2°55.554 172.9 9.3 165 40.6
2010-04-29 13:58:44 51°30.623 2°55.565 189.6 11.8 184 40.4
2010-04-29 13:59:44 51°30.421 2°55.548 188.3 12.3 184 36.9
2010-04-29 14:00:44 51°30.218 2°55.527 192.1 12.1 187 34.2
2010-04-29 14:01:44 51°30.02 2°55.471 195.5 12 190 33.2
2010-04-29 14:02:44 51°29.823 2°55.415 194.2 12.1 190 32.2
2010-04-29 14:03:44 51°29.627 2°55.357 194.7 11.8 190 30.8
2010-04-29 14:04:45 51°29.428 2°55.3 194.9 11.9 190 29.4
2010-04-29 14:05:44 51°29.236 2°55.244 194.5 12 190 28.1
2010-04-29 14:06:44 51°29.04 2°55.185 194.2 12.2 190 27.7
2010-04-29 14:07:44 51°28.843 2°55.125 194.6 12.1 191 25.7
2010-04-29 14:08:44 51°28.645 2°55.066 194.5 12.2 190 25.2
2010-04-29 14:09:44 51°28.446 2°55.01 194 12.1 191 24.3
2010-04-29 14:10:44 51°28.248 2°54.956 194.4 12.2 190 24.5
2010-04-29 14:11:45 51°28.047 2°54.903 194.2 12 190 26.9
2010-04-29 14:12:45 51°27.848 2°54.849 194.5 12.1 189 29.7
2010-04-29 14:13:45 51°27.65 2°54.8 193.9 12.1 189 30.8
2010-04-29 14:14:45 51°27.452 2°54.753 194.8 12 189 31.8
2010-04-29 14:15:44 51°27.259 2°54.705 194.4 11.9 189 31.8
2010-04-29 14:16:45 51°27.059 2°54.656 194.3 12 188 31.5
2010-04-29 14:17:45 51°26.862 2°54.607 193.8 11.9 188 28.7
2010-04-29 14:18:45 51°26.666 2°54.561 194.1 12 188 26
2010-04-29 14:19:45 51°26.467 2°54.512 195 12.2 190 26.6
2010-04-29 14:20:45 51°26.266 2°54.458 194 12.4 190 25.3
2010-04-29 14:21:45 51°26.063 2°54.4 193.8 12.4 190 25.7
2010-04-29 14:22:45 51°25.858 2°54.337 194.4 12.6 192 25.8
2010-04-29 14:23:45 51°25.652 2°54.268 194.1 12.7 191 24.3
2010-04-29 14:24:45 51°25.445 2°54.198 194.6 12.7 192 23.2
2010-04-29 14:25:45 51°25.238 2°54.126 194.2 12.8 192 23.9
2010-04-29 14:26:45 51°25.029 2°54.055 194.6 12.7 192 23
2010-04-29 14:27:45 51°24.823 2°53.987 194.3 12.6 192 21.4
2010-04-29 14:28:45 51°24.618 2°53.921 194.3 12.6 192 20.1
2010-04-29 14:29:44 51°24.418 2°53.858 194.9 12.3 191 18.8
2010-04-29 14:30:44 51°24.211 2°53.86 173.4 12.9 161 23
2010-04-29 14:31:44 51°24.015 2°54.018 157.6 13.4 148 24
2010-04-29 14:32:44 51°23.82 2°54.186 158.4 13.2 153 23.2
2010-04-29 14:33:44 51°23.624 2°54.349 159.5 13.2 154 22.8
2010-04-29 14:34:44 51°23.425 2°54.504 162.2 13.3 155 22.3
2010-04-29 14:35:44 51°23.221 2°54.618 172.7 12.7 170 21.3
2010-04-29 14:36:44 51°23.013 2°54.629 190.5 12.2 188 22.7
2010-04-29 14:37:44 51°22.813 2°54.569 197.2 12.3 191 24
2010-04-29 14:38:44 51°22.613 2°54.502 194.6 12.3 190 23.2
2010-04-29 14:39:44 51°22.409 2°54.442 195.2 12.5 190 21.6
2010-04-29 14:40:44 51°22.204 2°54.377 193.9 12.6 191 20.6
2010-04-29 14:41:44 51°21.996 2°54.312 194.4 12.7 191 21
2010-04-29 14:42:44 51°21.788 2°54.24 194.5 12.9 192 19.5
2010-04-29 14:43:44 51°21.578 2°54.162 196.5 12.9 196 19.3
2010-04-29 14:44:44 51°21.37 2°54.073 196 12.9 195 19.2
2010-04-29 14:45:44 51°21.163 2°53.986 196.1 12.8 194 19.1
2010-04-29 14:46:44 51°20.957 2°53.897 196.4 12.8 196 19.1
2010-04-29 14:47:45 51°20.747 2°53.807 196.1 12.9 194 18.9
2010-04-29 14:48:45 51°20.541 2°53.714 197.9 12.8 196 18.7
2010-04-29 14:49:45 51°20.337 2°53.618 197.1 12.7 197 18.5
2010-04-29 14:50:45 51°20.133 2°53.522 197 12.9 196 18
2010-04-29 14:51:45 51°19.928 2°53.424 197.7 12.7 198 17.3
2010-04-29 14:52:44 51°19.726 2°53.328 197.2 12.8 196 16.8
2010-04-29 14:53:45 51°19.518 2°53.224 197 13 198 16.1
2010-04-29 14:54:45 51°19.311 2°53.123 197.5 13 197 15.2
2010-04-29 14:55:45 51°19.103 2°53.023 197.3 13 198 14.6
2010-04-29 14:56:45 51°18.897 2°52.922 197.5 13.1 198 14.1
2010-04-29 14:57:45 51°18.693 2°52.818 197.3 12.9 197 13.7
2010-04-29 14:58:45 51°18.487 2°52.715 197.4 12.9 197 13.6
2010-04-29 14:59:45 51°18.279 2°52.641 186.5 13.2 186 13.1
2010-04-29 15:00:45 51°18.064 2°52.625 183.4 12.7 182 12.6
2010-04-29 15:01:44 51°17.851 2°52.61 181.5 12.9 181 12.3
2010-04-29 15:02:44 51°17.634 2°52.626 177.2 13.2 175 12.3
2010-04-29 15:03:44 51°17.416 2°52.659 175.1 13.1 175 12
2010-04-29 15:04:44 51°17.199 2°52.705 170.7 13.2 169 11.7
2010-04-29 15:05:45 51°16.981 2°52.789 165.2 13.2 164 11.7
2010-04-29 15:06:44 51°16.776 2°52.893 165.7 13.1 162 12
2010-04-29 15:07:44 51°16.568 2°53.009 161.9 13.3 158 13.6
2010-04-29 15:08:45 51°16.36 2°53.155 158.5 13.4 156 13.9
2010-04-29 15:09:45 51°16.16 2°53.314 154.1 13.4 153 13.7
2010-04-29 15:10:44 51°15.965 2°53.479 155.7 13.5 154 13.6
2010-04-29 15:11:44 51°15.767 2°53.648 151.5 13.5 147 13.1
2010-04-29 15:12:45 51°15.576 2°53.86 147.4 13.7 145 12.6
2010-04-29 15:13:45 51°15.388 2°54.07 144.1 13.8 143 12.2
2010-04-29 15:14:45 51°15.199 2°54.273 147.8 13.7 145 12.1
2010-04-29 15:15:45 51°15.02 2°54.491 148.2 13.3 146 11.8
2010-04-29 15:16:44 51°14.842 2°54.698 146 13.6 143 14
2010-04-29 15:17:45 51°14.656 2°54.916 146 13.6 146 13.9
2010-04-29 15:18:44 51°14.465 2°55.096 147.1 13.5 149 12.9
2010-04-29 15:19:45 51°14.272 2°55.279 146 12.6 147 12.4
2010-04-29 15:20:46 51°14.119 2°55.424 151.3 9.2 154 -999
2010-04-29 15:21:47 51°13.995 2°55.515 156.2 7.4 158 -999
2010-04-29 15:22:48 51°13.883 2°55.589 156.9 6.8 157 12.3
2010-04-29 15:23:48 51°13.786 2°55.665 149.6 6.5 147 -999
2010-04-29 15:24:48 51°13.718 2°55.781 124.7 5.3 124 -999
2010-04-29 15:25:48 51°13.68 2°55.883 115.5 4 116 9.9
2010-04-29 15:26:47 51°13.665 2°55.95 111.2 1 118 8.1